createdAt,value
2019-01-24T00:01:08.150Z,-3.70
2019-01-24T00:03:37.526Z,-3.70
2019-01-24T00:06:07.082Z,-3.70
2019-01-24T00:08:36.471Z,-3.80
2019-01-24T00:11:06.031Z,-3.70
2019-01-24T00:13:35.541Z,-3.70
2019-01-24T00:16:05.252Z,-3.70
2019-01-24T00:18:34.762Z,-3.70
2019-01-24T00:21:04.133Z,-3.70
2019-01-24T00:23:33.788Z,-3.70
2019-01-24T00:26:03.134Z,-3.70
2019-01-24T00:28:32.895Z,-3.70
2019-01-24T00:31:02.391Z,-3.70
2019-01-24T00:33:32.334Z,-3.80
2019-01-24T00:36:01.662Z,-3.70
2019-01-24T00:38:31.246Z,-3.70
2019-01-24T00:41:00.593Z,-3.70
2019-01-24T00:43:30.112Z,-3.70
2019-01-24T00:45:59.847Z,-3.70
2019-01-24T00:48:29.198Z,-3.70
2019-01-24T00:50:58.866Z,-3.80
2019-01-24T00:53:28.256Z,-3.80
2019-01-24T00:55:57.914Z,-3.70
2019-01-24T00:58:27.342Z,-3.70
2019-01-24T01:00:56.945Z,-3.70
2019-01-24T01:03:26.541Z,-3.80
2019-01-24T01:05:55.962Z,-3.70
2019-01-24T01:08:25.421Z,-3.70
2019-01-24T01:10:54.927Z,-3.70
2019-01-24T01:13:24.378Z,-3.70
2019-01-24T01:15:53.932Z,-3.60
2019-01-24T01:18:23.411Z,-3.70
2019-01-24T01:20:53.188Z,-3.70
2019-01-24T01:23:22.591Z,-3.70
2019-01-24T01:25:52.131Z,-3.80
2019-01-24T01:28:21.755Z,-3.80
2019-01-24T01:30:51.250Z,-3.90
2019-01-24T01:33:20.769Z,-3.80
2019-01-24T01:35:50.326Z,-3.80
2019-01-24T01:38:20.043Z,-3.80
2019-01-24T01:40:49.533Z,-3.80
2019-01-24T01:43:19.110Z,-3.80
2019-01-24T01:45:48.499Z,-3.80
2019-01-24T01:48:18.097Z,-3.70
2019-01-24T01:50:47.418Z,-3.80
2019-01-24T01:53:17.142Z,-3.70
2019-01-24T01:55:46.654Z,-3.80
2019-01-24T01:58:16.165Z,-3.80
2019-01-24T02:00:45.696Z,-3.80
2019-01-24T02:03:15.407Z,-3.70
2019-01-24T02:05:44.854Z,-3.70
2019-01-24T02:08:14.261Z,-3.70
2019-01-24T02:10:43.895Z,-3.80
2019-01-24T02:13:13.650Z,-3.80
2019-01-24T02:15:42.991Z,-3.80
2019-01-24T02:18:12.890Z,-3.80
2019-01-24T02:20:42.682Z,-3.80
2019-01-24T02:23:12.087Z,-3.90
2019-01-24T02:25:41.662Z,-3.90
2019-01-24T02:28:11.042Z,-3.90
2019-01-24T02:30:40.929Z,-3.90
2019-01-24T02:33:10.331Z,-3.90
2019-01-24T02:35:39.699Z,-4.00
2019-01-24T02:38:09.191Z,-4.00
2019-01-24T02:40:38.625Z,-4.00
2019-01-24T02:43:08.012Z,-3.90
2019-01-24T02:45:37.391Z,-3.80
2019-01-24T02:48:06.827Z,-3.80
2019-01-24T02:50:36.468Z,-3.80
2019-01-24T02:53:06.099Z,-3.80
2019-01-24T02:55:35.645Z,-3.90
2019-01-24T02:58:05.287Z,-4.00
2019-01-24T03:00:34.957Z,-4.00
2019-01-24T03:03:04.472Z,-4.00
2019-01-24T03:05:34.014Z,-3.80
2019-01-24T03:08:03.374Z,-3.80
2019-01-24T03:10:32.805Z,-3.90
2019-01-24T03:13:02.218Z,-3.90
2019-01-24T03:15:31.745Z,-4.00
2019-01-24T03:18:01.406Z,-4.00
2019-01-24T03:20:31.003Z,-4.00
2019-01-24T03:23:00.580Z,-4.00
2019-01-24T03:25:30.013Z,-3.90
2019-01-24T03:27:59.570Z,-3.80
2019-01-24T03:30:29.116Z,-3.90
2019-01-24T03:32:58.688Z,-3.90
2019-01-24T03:35:28.306Z,-3.90
2019-01-24T03:37:57.892Z,-3.90
2019-01-24T03:40:27.440Z,-4.00
2019-01-24T03:42:56.817Z,-4.00
2019-01-24T03:45:26.425Z,-4.00
2019-01-24T03:47:55.985Z,-4.00
2019-01-24T03:50:25.459Z,-4.00
2019-01-24T03:52:55.001Z,-4.00
2019-01-24T03:55:26.278Z,-4.00
2019-01-24T03:57:55.630Z,-4.00
2019-01-24T04:00:25.902Z,-4.00
2019-01-24T04:02:55.299Z,-4.00
2019-01-24T04:05:24.649Z,-4.10
2019-01-24T04:07:54.378Z,-4.00
2019-01-24T04:10:23.897Z,-4.00
2019-01-24T04:12:53.542Z,-4.00
2019-01-24T04:15:25.014Z,-4.00
2019-01-24T04:17:54.586Z,-3.90
2019-01-24T04:20:24.168Z,-4.00
2019-01-24T04:22:53.698Z,-4.00
2019-01-24T04:25:23.152Z,-4.00
2019-01-24T04:27:53.014Z,-4.00
2019-01-24T04:30:23.871Z,-4.00
2019-01-24T04:32:53.744Z,-3.90
2019-01-24T04:35:23.380Z,-3.90
2019-01-24T04:37:53.134Z,-3.90
2019-01-24T04:40:22.696Z,-3.90
2019-01-24T04:42:52.256Z,-3.90
2019-01-24T04:45:21.815Z,-4.00
2019-01-24T04:47:51.555Z,-4.00
2019-01-24T04:50:21.228Z,-4.00
2019-01-24T04:52:51.037Z,-4.00
2019-01-24T04:55:22.351Z,-4.00
2019-01-24T04:57:52.146Z,-4.10
2019-01-24T05:00:29.770Z,-4.00
2019-01-24T05:02:59.111Z,-4.00
2019-01-24T05:05:28.469Z,-4.00
2019-01-24T05:07:57.839Z,-4.10
2019-01-24T05:10:27.483Z,-4.00
2019-01-24T05:12:57.143Z,-4.10
2019-01-24T05:15:26.611Z,-4.10
2019-01-24T05:17:56.908Z,-4.10
2019-01-24T05:20:26.502Z,-4.10
2019-01-24T05:22:56.265Z,-4.10
2019-01-24T05:25:25.618Z,-4.10
2019-01-24T05:27:55.226Z,-4.00
2019-01-24T05:30:27.943Z,-4.00
2019-01-24T05:32:58.047Z,-3.90
2019-01-24T05:35:34.517Z,-3.90
2019-01-24T05:37:59.258Z,-3.90
2019-01-24T05:40:28.700Z,-4.00
2019-01-24T05:42:58.164Z,-3.90
2019-01-24T05:45:27.566Z,-4.00
2019-01-24T05:47:57.308Z,-4.00
2019-01-24T05:50:26.786Z,-4.10
2019-01-24T05:52:58.763Z,-4.10
2019-01-24T05:55:28.122Z,-4.10
2019-01-24T05:57:58.662Z,-4.10
2019-01-24T06:00:42.865Z,-4.20
2019-01-24T06:03:12.327Z,-4.20
2019-01-24T06:05:42.060Z,-4.20
2019-01-24T06:08:12.199Z,-4.20
2019-01-24T06:10:41.690Z,-4.20
2019-01-24T06:13:11.168Z,-4.20
2019-01-24T06:15:40.533Z,-4.20
2019-01-24T06:18:10.134Z,-4.30
2019-01-24T06:20:39.911Z,-4.30
2019-01-24T06:23:09.281Z,-4.20
2019-01-24T06:25:38.689Z,-4.20
2019-01-24T06:28:08.405Z,-4.20
2019-01-24T06:30:37.933Z,-4.20
2019-01-24T06:33:07.391Z,-4.20
2019-01-24T06:35:36.966Z,-4.20
2019-01-24T06:38:06.496Z,-4.20
2019-01-24T06:40:36.086Z,-4.30
2019-01-24T06:43:05.680Z,-4.20
2019-01-24T06:45:35.287Z,-4.30
2019-01-24T06:48:05.038Z,-4.30
2019-01-24T06:50:34.427Z,-4.20
2019-01-24T06:53:04.314Z,-4.20
2019-01-24T06:55:33.770Z,-4.20
2019-01-24T06:58:03.805Z,-4.20
2019-01-24T07:00:33.375Z,-4.20
2019-01-24T07:03:03.307Z,-4.20
2019-01-24T07:05:32.801Z,-4.20
2019-01-24T07:08:02.139Z,-4.30
2019-01-24T07:10:31.533Z,-4.20
2019-01-24T07:13:01.012Z,-4.20
2019-01-24T07:15:30.573Z,-4.20
2019-01-24T07:18:00.084Z,-4.20
2019-01-24T07:20:29.658Z,-4.20
2019-01-24T07:22:59.194Z,-4.10
2019-01-24T07:25:29.334Z,-4.10
2019-01-24T07:27:58.869Z,-4.20
2019-01-24T07:30:28.242Z,-4.20
2019-01-24T07:32:57.748Z,-4.20
2019-01-24T07:35:27.110Z,-4.20
2019-01-24T07:37:56.419Z,-4.10
2019-01-24T07:40:25.958Z,-4.10
2019-01-24T07:42:55.562Z,-4.10
2019-01-24T07:45:38.104Z,-4.00
2019-01-24T07:48:07.781Z,-3.90
2019-01-24T07:50:37.287Z,-3.90
2019-01-24T07:53:08.127Z,-4.00
2019-01-24T07:55:37.850Z,-3.90
2019-01-24T07:58:08.684Z,-3.90
2019-01-24T08:00:38.123Z,-3.90
2019-01-24T08:03:08.160Z,-3.80
2019-01-24T08:05:37.921Z,-3.90
2019-01-24T08:08:07.759Z,-3.90
2019-01-24T08:10:37.315Z,-3.80
2019-01-24T08:13:07.070Z,-3.90
2019-01-24T08:15:36.432Z,-3.90
2019-01-24T08:18:05.800Z,-3.90
2019-01-24T08:20:35.204Z,-3.90
2019-01-24T08:23:04.963Z,-3.90
2019-01-24T08:25:34.398Z,-3.80
2019-01-24T08:28:03.813Z,-3.90
2019-01-24T08:30:34.224Z,-3.90
2019-01-24T08:33:03.639Z,-3.90
2019-01-24T08:35:33.374Z,-3.80
2019-01-24T08:38:02.959Z,-3.80
2019-01-24T08:40:32.353Z,-3.80
2019-01-24T08:43:01.898Z,-3.80
2019-01-24T08:45:31.342Z,-3.70
2019-01-24T08:48:00.869Z,-3.60
2019-01-24T08:50:30.333Z,-3.60
2019-01-24T08:52:59.832Z,-3.60
2019-01-24T08:55:40.351Z,-3.60
2019-01-24T08:58:10.636Z,-3.50
2019-01-24T09:00:40.331Z,-3.50
2019-01-24T09:03:09.915Z,-3.50
2019-01-24T09:05:39.458Z,-3.50
2019-01-24T09:08:09.016Z,-3.50
2019-01-24T09:10:40.556Z,-3.60
2019-01-24T09:13:10.177Z,-3.50
2019-01-24T09:15:39.868Z,-3.50
2019-01-24T09:18:09.847Z,-3.50
2019-01-24T09:20:39.247Z,-3.50
2019-01-24T09:23:08.787Z,-3.50
2019-01-24T09:25:38.591Z,-3.50
2019-01-24T09:28:14.640Z,-3.40
2019-01-24T09:30:39.839Z,-3.40
2019-01-24T09:33:09.302Z,-3.50
2019-01-24T09:35:38.920Z,-3.40
2019-01-24T09:38:08.297Z,-3.50
2019-01-24T09:40:37.794Z,-3.60
2019-01-24T09:43:07.309Z,-3.40
2019-01-24T09:45:36.795Z,-3.40
2019-01-24T09:48:08.372Z,-3.50
2019-01-24T09:50:38.022Z,-3.40
2019-01-24T09:53:07.480Z,-3.40
2019-01-24T09:55:36.878Z,-3.40
2019-01-24T09:58:06.468Z,-3.20
2019-01-24T10:00:38.562Z,-3.10
2019-01-24T10:03:08.375Z,-3.10
2019-01-24T10:05:37.887Z,-3.10
2019-01-24T10:08:08.709Z,-3.00
2019-01-24T10:10:38.054Z,-3.00
2019-01-24T10:13:07.578Z,-3.00
2019-01-24T10:15:36.962Z,-2.90
2019-01-24T10:18:06.379Z,-2.90
2019-01-24T10:20:35.830Z,-2.90
2019-01-24T10:23:05.631Z,-3.00
2019-01-24T10:25:38.069Z,-3.00
2019-01-24T10:28:09.037Z,-3.10
2019-01-24T10:30:42.576Z,-2.90
2019-01-24T10:33:09.969Z,-2.90
2019-01-24T10:35:39.562Z,-2.80
2019-01-24T10:38:08.942Z,-2.70
2019-01-24T10:40:38.512Z,-2.70
2019-01-24T10:43:09.591Z,-2.60
2019-01-24T10:45:39.042Z,-2.60
2019-01-24T10:48:09.046Z,-2.50
2019-01-24T10:50:38.527Z,-2.50
2019-01-24T10:53:08.183Z,-2.40
2019-01-24T10:55:37.646Z,-2.50
2019-01-24T10:58:07.846Z,-2.50
2019-01-24T11:00:40.240Z,-2.60
2019-01-24T11:03:15.291Z,-2.50
2019-01-24T11:05:45.036Z,-2.30
2019-01-24T11:08:15.006Z,-2.00
2019-01-24T11:10:44.439Z,-2.00
2019-01-24T11:13:13.859Z,-2.00
2019-01-24T11:15:43.513Z,-1.80
2019-01-24T11:18:12.909Z,-1.70
2019-01-24T11:20:42.824Z,-1.90
2019-01-24T11:23:12.262Z,-1.90
2019-01-24T11:25:41.693Z,-2.00
2019-01-24T11:28:11.131Z,-1.90
2019-01-24T11:30:40.524Z,-2.00
2019-01-24T11:33:10.991Z,-1.90
2019-01-24T11:35:40.531Z,-1.90
2019-01-24T11:38:10.085Z,-2.00
2019-01-24T11:40:39.700Z,-2.00
2019-01-24T11:43:09.236Z,-2.00
2019-01-24T11:45:40.759Z,-2.20
2019-01-24T11:48:10.560Z,-2.30
2019-01-24T11:50:39.983Z,-2.40
2019-01-24T11:53:09.738Z,-2.40
2019-01-24T11:55:39.171Z,-2.40
2019-01-24T11:58:09.109Z,-2.40
2019-01-24T12:00:59.263Z,-2.50
2019-01-24T12:03:28.865Z,-2.50
2019-01-24T12:05:58.591Z,-2.50
2019-01-24T12:08:28.279Z,-2.60
2019-01-24T12:10:57.869Z,-2.60
2019-01-24T12:13:27.574Z,-2.70
2019-01-24T12:15:57.181Z,-2.70
2019-01-24T12:18:26.598Z,-2.80
2019-01-24T12:20:56.138Z,-2.80
2019-01-24T12:23:26.227Z,-3.00
2019-01-24T12:25:55.977Z,-2.90
2019-01-24T12:28:25.468Z,-2.80
2019-01-24T12:30:55.034Z,-2.70
2019-01-24T12:33:24.954Z,-2.60
2019-01-24T12:35:54.496Z,-2.60
2019-01-24T12:38:23.925Z,-2.50
2019-01-24T12:40:53.407Z,-2.50
2019-01-24T12:43:22.880Z,-2.50
2019-01-24T12:45:52.679Z,-2.50
2019-01-24T12:48:22.210Z,-2.30
2019-01-24T12:50:51.818Z,-2.20
2019-01-24T12:53:21.311Z,-2.20
2019-01-24T12:55:50.701Z,-2.20
2019-01-24T12:58:20.110Z,-2.40
2019-01-24T13:00:49.622Z,-2.20
2019-01-24T13:03:19.077Z,-2.20
2019-01-24T13:05:48.791Z,-2.10
2019-01-24T13:08:18.302Z,-1.90
2019-01-24T13:10:47.840Z,-2.00
2019-01-24T13:13:17.395Z,-2.00
2019-01-24T13:15:46.787Z,-2.20
2019-01-24T13:18:16.295Z,-2.30
2019-01-24T13:20:45.730Z,-2.20
2019-01-24T13:23:15.183Z,-2.20
2019-01-24T13:25:44.812Z,-2.20
2019-01-24T13:28:14.356Z,-2.20
2019-01-24T13:30:43.813Z,-2.20
2019-01-24T13:33:13.465Z,-2.30
2019-01-24T13:35:42.871Z,-2.20
2019-01-24T13:38:12.444Z,-2.10
2019-01-24T13:40:41.966Z,-2.10
2019-01-24T13:43:11.463Z,-2.00
2019-01-24T13:45:41.323Z,-2.00
2019-01-24T13:48:10.743Z,-2.00
2019-01-24T13:50:40.452Z,-2.20
2019-01-24T13:53:10.040Z,-2.30
2019-01-24T13:55:40.184Z,-2.40
2019-01-24T13:58:09.897Z,-2.40
2019-01-24T14:00:42.892Z,-2.40
2019-01-24T14:03:42.490Z,-2.40
2019-01-24T14:06:12.536Z,-2.30
2019-01-24T14:08:42.109Z,-2.30
2019-01-24T14:11:17.841Z,-2.30
2019-01-24T14:13:43.001Z,-2.40
2019-01-24T14:16:12.714Z,-2.40
2019-01-24T14:18:42.192Z,-2.40
2019-01-24T14:21:11.723Z,-2.50
2019-01-24T14:23:41.910Z,-2.60
2019-01-24T14:26:11.570Z,-2.70
2019-01-24T14:28:42.340Z,-2.80
2019-01-24T14:31:12.128Z,-2.80
2019-01-24T14:33:42.244Z,-2.70
2019-01-24T14:36:11.950Z,-2.80
2019-01-24T14:38:41.867Z,-2.80
2019-01-24T14:41:11.268Z,-2.90
2019-01-24T14:43:40.952Z,-2.90
2019-01-24T14:46:10.455Z,-2.90
2019-01-24T14:48:40.208Z,-3.00
2019-01-24T14:51:09.771Z,-3.00
2019-01-24T14:53:39.406Z,-3.10
2019-01-24T14:56:08.909Z,-3.00
2019-01-24T14:58:38.337Z,-3.00
2019-01-24T15:01:11.796Z,-3.00
2019-01-24T15:03:41.461Z,-3.00
2019-01-24T15:06:11.137Z,-3.00
2019-01-24T15:08:40.904Z,-3.00
2019-01-24T15:11:10.350Z,-3.10
2019-01-24T15:13:39.911Z,-3.20
2019-01-24T15:16:09.550Z,-3.20
2019-01-24T15:18:39.744Z,-3.20
2019-01-24T15:21:09.733Z,-3.20
2019-01-24T15:23:39.162Z,-3.30
2019-01-24T15:26:08.544Z,-3.30
2019-01-24T15:28:38.067Z,-3.30
2019-01-24T15:31:07.592Z,-3.30
2019-01-24T15:33:37.030Z,-3.30
2019-01-24T15:36:06.834Z,-3.20
2019-01-24T15:38:36.257Z,-3.30
2019-01-24T15:41:05.722Z,-3.20
2019-01-24T15:43:35.285Z,-3.20
2019-01-24T15:46:05.551Z,-3.20
2019-01-24T15:48:35.190Z,-3.20
2019-01-24T15:51:05.020Z,-3.30
2019-01-24T15:53:34.570Z,-3.30
2019-01-24T15:56:04.478Z,-3.40
2019-01-24T15:58:34.194Z,-3.40
2019-01-24T16:01:04.483Z,-3.40
2019-01-24T16:03:33.953Z,-3.40
2019-01-24T16:06:03.585Z,-3.40
2019-01-24T16:08:33.162Z,-3.40
2019-01-24T16:11:02.704Z,-3.40
2019-01-24T16:13:32.424Z,-3.40
2019-01-24T16:16:02.241Z,-3.40
2019-01-24T16:18:31.826Z,-3.40
2019-01-24T16:21:01.304Z,-3.50
2019-01-24T16:23:31.046Z,-3.50
2019-01-24T16:26:00.647Z,-3.50
2019-01-24T16:28:30.091Z,-3.50
2019-01-24T16:30:59.623Z,-3.50
2019-01-24T16:33:29.332Z,-3.50
2019-01-24T16:35:59.014Z,-3.60
2019-01-24T16:38:28.595Z,-3.60
2019-01-24T16:40:59.298Z,-3.50
2019-01-24T16:43:29.233Z,-3.50
2019-01-24T16:45:58.683Z,-3.50
2019-01-24T16:48:28.360Z,-3.50
2019-01-24T16:50:58.028Z,-3.50
2019-01-24T16:53:27.671Z,-3.50
2019-01-24T16:55:57.222Z,-3.50
2019-01-24T16:58:26.767Z,-3.50
2019-01-24T17:01:18.609Z,-3.50
2019-01-24T17:03:48.254Z,-3.50
2019-01-24T17:06:17.841Z,-3.50
2019-01-24T17:08:48.726Z,-3.60
2019-01-24T17:11:18.259Z,-3.60
2019-01-24T17:13:48.461Z,-3.60
2019-01-24T17:16:18.118Z,-3.60
2019-01-24T17:18:47.999Z,-3.50
2019-01-24T17:21:17.776Z,-3.50
2019-01-24T17:23:47.591Z,-3.60
2019-01-24T17:26:17.315Z,-3.60
2019-01-24T17:28:47.317Z,-3.60
2019-01-24T17:31:16.948Z,-3.60
2019-01-24T17:33:46.569Z,-3.60
2019-01-24T17:36:16.035Z,-3.60
2019-01-24T17:38:45.484Z,-3.60
2019-01-24T17:41:14.961Z,-3.60
2019-01-24T17:43:44.879Z,-3.60
2019-01-24T17:46:14.395Z,-3.60
2019-01-24T17:48:44.054Z,-3.60
2019-01-24T17:51:15.559Z,-3.60
2019-01-24T17:53:45.943Z,-3.70
2019-01-24T17:56:15.636Z,-3.70
2019-01-24T17:58:45.301Z,-3.80
2019-01-24T18:01:14.782Z,-3.80
2019-01-24T18:03:44.565Z,-3.70
2019-01-24T18:06:14.380Z,-3.80
2019-01-24T18:08:44.424Z,-3.80
2019-01-24T18:11:14.411Z,-3.80
2019-01-24T18:13:44.245Z,-3.90
2019-01-24T18:16:14.238Z,-3.80
2019-01-24T18:18:44.204Z,-3.80
2019-01-24T18:21:13.904Z,-3.80
2019-01-24T18:23:43.781Z,-3.80
2019-01-24T18:26:13.911Z,-3.80
2019-01-24T18:28:43.636Z,-3.80
2019-01-24T18:31:14.272Z,-3.80
2019-01-24T18:33:44.204Z,-3.80
2019-01-24T18:36:14.254Z,-3.80
2019-01-24T18:38:44.175Z,-3.80
2019-01-24T18:41:14.147Z,-3.80
2019-01-24T18:43:44.465Z,-3.80
2019-01-24T18:46:14.480Z,-3.70
2019-01-24T18:48:44.612Z,-3.70
2019-01-24T18:51:14.777Z,-3.80
2019-01-24T18:53:45.218Z,-3.80
2019-01-24T18:56:15.518Z,-3.80
2019-01-24T18:58:45.949Z,-3.80
2019-01-24T19:01:16.247Z,-3.80
2019-01-24T19:03:46.199Z,-3.70
2019-01-24T19:06:19.008Z,-3.80
2019-01-24T19:08:49.608Z,-3.80
2019-01-24T19:11:19.943Z,-3.70
2019-01-24T19:13:50.095Z,-3.70
2019-01-24T19:16:19.973Z,-3.60
2019-01-24T19:18:50.053Z,-3.50
2019-01-24T19:21:20.738Z,-3.50
2019-01-24T19:23:50.782Z,-3.60
2019-01-24T19:26:21.021Z,-3.30
2019-01-24T19:28:51.135Z,-3.50
2019-01-24T19:31:21.254Z,-3.40
2019-01-24T19:33:51.145Z,-3.40
2019-01-24T19:36:21.039Z,-3.20
2019-01-24T19:38:53.195Z,-3.20
2019-01-24T19:41:22.422Z,-3.30
2019-01-24T19:43:52.431Z,-3.50
2019-01-24T19:46:22.412Z,-3.60
2019-01-24T19:48:52.481Z,-3.70
2019-01-24T19:51:22.523Z,-3.70
2019-01-24T19:53:52.505Z,-3.80
2019-01-24T19:56:22.729Z,-3.80
2019-01-24T19:58:53.783Z,-3.80
2019-01-24T20:01:25.404Z,-3.90
2019-01-24T20:03:56.924Z,-3.80
2019-01-24T20:06:27.766Z,-3.80
2019-01-24T20:09:00.247Z,-3.80
2019-01-24T20:11:29.180Z,-3.80
2019-01-24T20:13:59.096Z,-3.80
2019-01-24T20:16:29.002Z,-3.80
2019-01-24T20:18:58.831Z,-3.80
2019-01-24T20:21:29.351Z,-3.80
2019-01-24T20:23:59.085Z,-3.80
2019-01-24T20:26:28.564Z,-3.80
2019-01-24T20:28:58.450Z,-3.90
2019-01-24T20:31:28.245Z,-3.90
2019-01-24T20:33:58.609Z,-3.80
2019-01-24T20:36:28.472Z,-3.80
2019-01-24T20:38:58.156Z,-3.70
2019-01-24T20:41:27.943Z,-3.80
2019-01-24T20:43:57.714Z,-3.80
2019-01-24T20:46:27.596Z,-3.80
2019-01-24T20:48:58.673Z,-3.80
2019-01-24T20:51:28.459Z,-3.80
2019-01-24T20:53:58.104Z,-3.80
2019-01-24T20:56:27.793Z,-3.70
2019-01-24T20:58:57.472Z,-3.70
2019-01-24T21:01:27.760Z,-3.60
2019-01-24T21:03:57.407Z,-3.70
2019-01-24T21:06:29.276Z,-3.70
2019-01-24T21:08:59.315Z,-3.70
2019-01-24T21:11:29.774Z,-3.80
2019-01-24T21:13:59.513Z,-3.80
2019-01-24T21:16:30.184Z,-3.80
2019-01-24T21:19:00.190Z,-3.80
2019-01-24T21:21:29.682Z,-3.80
2019-01-24T21:23:59.361Z,-3.80
2019-01-24T21:26:30.058Z,-3.80
2019-01-24T21:28:59.703Z,-3.80
2019-01-24T21:31:29.222Z,-3.90
2019-01-24T21:33:58.793Z,-3.90
2019-01-24T21:36:30.737Z,-3.90
2019-01-24T21:39:00.488Z,-3.80
2019-01-24T21:41:30.374Z,-3.80
2019-01-24T21:44:00.295Z,-3.70
2019-01-24T21:46:30.852Z,-3.80
2019-01-24T21:49:00.609Z,-3.80
2019-01-24T21:51:30.552Z,-3.80
2019-01-24T21:54:00.034Z,-3.80
2019-01-24T21:56:31.076Z,-3.90
2019-01-24T21:59:00.804Z,-3.90
2019-01-24T22:01:30.407Z,-3.90
2019-01-24T22:03:59.890Z,-3.90
2019-01-24T22:06:30.129Z,-3.80
2019-01-24T22:08:59.766Z,-3.90
2019-01-24T22:11:29.488Z,-3.90
2019-01-24T22:13:59.198Z,-3.90
2019-01-24T22:16:30.399Z,-3.90
2019-01-24T22:19:00.158Z,-3.90
2019-01-24T22:21:29.665Z,-3.90
2019-01-24T22:23:59.209Z,-3.90
2019-01-24T22:26:29.644Z,-3.90
2019-01-24T22:28:59.477Z,-3.90
2019-01-24T22:31:28.989Z,-4.00
2019-01-24T22:33:58.539Z,-3.90
2019-01-24T22:36:28.853Z,-3.90
2019-01-24T22:38:58.294Z,-3.90
2019-01-24T22:41:27.885Z,-4.00
2019-01-24T22:43:57.264Z,-4.00
2019-01-24T22:46:27.780Z,-4.00
2019-01-24T22:48:57.286Z,-4.00
2019-01-24T22:51:26.867Z,-4.00
2019-01-24T22:53:56.350Z,-4.00
2019-01-24T22:56:27.584Z,-4.00
2019-01-24T22:58:56.978Z,-4.00
2019-01-24T23:01:48.653Z,-3.90
2019-01-24T23:04:20.789Z,-4.00
2019-01-24T23:06:50.214Z,-4.00
2019-01-24T23:09:19.706Z,-4.00
2019-01-24T23:11:49.100Z,-4.00
2019-01-24T23:14:18.521Z,-4.00
2019-01-24T23:16:48.016Z,-4.10
2019-01-24T23:19:17.421Z,-4.10
2019-01-24T23:21:46.852Z,-4.10
2019-01-24T23:24:17.571Z,-4.10
2019-01-24T23:26:46.981Z,-4.10
2019-01-24T23:29:16.358Z,-4.10
2019-01-24T23:31:45.915Z,-4.10
2019-01-24T23:34:15.439Z,-4.10
2019-01-24T23:36:45.107Z,-4.10
2019-01-24T23:39:14.536Z,-4.10
2019-01-24T23:41:44.007Z,-4.20
2019-01-24T23:44:13.665Z,-4.10
2019-01-24T23:46:43.158Z,-4.10
2019-01-24T23:49:12.708Z,-4.10
2019-01-24T23:51:42.211Z,-4.10
2019-01-24T23:54:11.908Z,-4.10
2019-01-24T23:56:41.384Z,-4.10
2019-01-24T23:59:10.865Z,-4.10
